Time,TemperatureF,DewpointF,PressureIn,WindDirection,WindDirectionDegrees,WindSpeedMPH,WindSpeedGustMPH,Humidity,HourlyPrecipIn,Conditions,Clouds,dailyrainin,SoftwareType,DateUTC
2015-07-05 00:02:00,60.0,58.1,29.09,SW,230,0.8,1.2,93,0.00,,,0.00,proprietary,2015-07-05 04:02:00,
2015-07-05 00:07:00,60.1,58.2,29.09,SW,228,0.8,0.8,93,0.00,,,0.00,proprietary,2015-07-05 04:07:00,
2015-07-05 00:12:00,59.8,58.1,29.09,North,0,0.0,0.0,93,0.00,,,0.00,proprietary,2015-07-05 04:12:00,
2015-07-05 00:17:00,59.7,57.9,29.09,SSW,213,0.1,0.8,93,0.00,,,0.00,proprietary,2015-07-05 04:17:00,
2015-07-05 00:22:00,59.6,57.9,29.09,SW,219,0.9,1.1,94,0.00,,,0.00,proprietary,2015-07-05 04:22:00,
2015-07-05 00:27:00,59.6,57.9,29.09,WSW,242,1.5,1.6,94,0.00,,,0.00,proprietary,2015-07-05 04:27:00,
2015-07-05 00:32:00,59.5,57.8,29.10,North,0,0.0,0.0,93,0.00,,,0.00,proprietary,2015-07-05 04:32:00,
2015-07-05 00:37:00,59.3,57.7,29.09,WSW,256,0.9,1.1,94,0.00,,,0.00,proprietary,2015-07-05 04:37:00,
2015-07-05 00:42:00,59.3,57.9,29.10,North,0,0.0,0.0,94,0.00,,,0.00,proprietary,2015-07-05 04:42:00,
2015-07-05 00:50:00,59.2,57.8,29.10,North,0,0.0,0.0,94,0.00,,,0.00,proprietary,2015-07-05 04:50:00,
2015-07-05 00:56:00,59.1,57.4,29.10,WSW,238,0.2,0.8,94,0.00,,,0.00,proprietary,2015-07-05 04:56:00,
2015-07-05 01:01:00,58.7,57.2,29.10,SW,225,1.2,1.3,94,0.00,,,0.00,proprietary,2015-07-05 05:01:00,
2015-07-05 01:06:00,58.7,57.2,29.10,North,0,0.0,0.0,94,0.00,,,0.00,proprietary,2015-07-05 05:06:00,
2015-07-05 01:11:00,58.6,57.0,29.10,SW,223,0.8,1.0,94,0.00,,,0.00,proprietary,2015-07-05 05:11:00,
2015-07-05 01:16:00,58.5,56.9,29.10,SW,223,0.9,1.1,94,0.00,,,0.00,proprietary,2015-07-05 05:16:00,
2015-07-05 01:21:00,58.4,56.9,29.10,SW,223,0.9,1.0,94,0.00,,,0.00,proprietary,2015-07-05 05:21:00,
2015-07-05 01:26:00,58.3,56.8,29.10,SW,224,0.9,1.0,94,0.00,,,0.00,proprietary,2015-07-05 05:26:00,
2015-07-05 01:31:00,58.2,56.7,29.10,SW,222,1.0,1.1,94,0.00,,,0.00,proprietary,2015-07-05 05:31:00,
2015-07-05 01:36:00,58.1,56.6,29.10,SW,221,0.9,1.1,94,0.00,,,0.00,proprietary,2015-07-05 05:36:00,
2015-07-05 01:41:00,58.1,56.6,29.10,North,0,0.0,0.0,94,0.00,,,0.00,proprietary,2015-07-05 05:41:00,
2015-07-05 01:46:00,58.0,56.5,29.10,SW,223,0.4,0.9,94,0.00,,,0.00,proprietary,2015-07-05 05:46:00,
2015-07-05 01:51:00,58.0,56.5,29.10,SW,230,1.3,1.4,94,0.00,,,0.00,proprietary,2015-07-05 05:51:00,
2015-07-05 01:56:00,57.7,56.1,29.10,North,0,0.0,0.0,94,0.00,,,0.00,proprietary,2015-07-05 05:56:00,
2015-07-05 02:01:00,57.6,56.1,29.10,North,0,0.0,0.0,94,0.00,,,0.00,proprietary,2015-07-05 06:01:00,
2015-07-05 02:06:00,57.5,56.0,29.10,SW,221,0.3,0.9,94,0.00,,,0.00,proprietary,2015-07-05 06:06:00,
2015-07-05 02:11:00,57.4,56.0,29.10,North,0,0.0,0.0,95,0.00,,,0.00,proprietary,2015-07-05 06:11:00,
2015-07-05 02:16:00,57.3,55.8,29.10,SW,222,1.1,1.2,94,0.00,,,0.00,proprietary,2015-07-05 06:16:00,
2015-07-05 02:21:00,57.1,55.6,29.10,WSW,256,1.2,1.3,94,0.00,,,0.00,proprietary,2015-07-05 06:21:00,
2015-07-05 02:26:00,57.0,55.8,29.10,WNW,295,2.2,3.2,95,0.00,,,0.00,proprietary,2015-07-05 06:26:00,
2015-07-05 02:31:00,57.0,55.8,29.11,North,0,0.0,0.0,95,0.00,,,0.00,proprietary,2015-07-05 06:31:00,
2015-07-05 02:36:00,57.0,55.9,29.11,South,191,0.4,1.8,96,0.00,,,0.00,proprietary,2015-07-05 06:36:00,
2015-07-05 02:41:00,56.6,55.3,29.11,South,173,0.7,1.2,95,0.00,,,0.00,proprietary,2015-07-05 06:41:00,
2015-07-05 02:46:00,57.0,55.7,29.11,South,173,0.1,0.7,95,0.00,,,0.00,proprietary,2015-07-05 06:46:00,
2015-07-05 02:51:00,57.0,55.7,29.10,South,172,0.2,0.8,95,0.00,,,0.00,proprietary,2015-07-05 06:51:00,
2015-07-05 02:56:00,56.9,55.6,29.11,WNW,282,1.5,1.7,95,0.00,,,0.00,proprietary,2015-07-05 06:56:00,
2015-07-05 03:01:00,56.9,55.7,29.11,WSW,251,1.1,1.3,95,0.00,,,0.00,proprietary,2015-07-05 07:01:00,
2015-07-05 03:06:00,57.0,55.8,29.11,North,0,0.0,0.0,95,0.00,,,0.00,proprietary,2015-07-05 07:06:00,
2015-07-05 03:11:00,57.2,55.9,29.11,North,0,0.0,0.0,95,0.00,,,0.00,proprietary,2015-07-05 07:11:00,
2015-07-05 03:16:00,56.9,55.5,29.10,SW,235,0.1,0.9,94,0.00,,,0.00,proprietary,2015-07-05 07:16:00,
2015-07-05 03:21:00,57.0,55.5,29.10,SW,235,1.3,1.4,94,0.00,,,0.00,proprietary,2015-07-05 07:21:00,
2015-07-05 03:26:00,56.9,55.5,29.11,SW,221,0.2,1.0,94,0.00,,,0.00,proprietary,2015-07-05 07:26:00,
2015-07-05 03:31:00,56.8,55.5,29.11,North,0,0.0,0.0,95,0.00,,,0.00,proprietary,2015-07-05 07:31:00,
2015-07-05 03:36:00,56.6,55.3,29.11,SW,221,0.5,0.8,95,0.00,,,0.00,proprietary,2015-07-05 07:36:00,
2015-07-05 03:41:00,56.5,55.3,29.11,North,0,0.0,0.0,95,0.00,,,0.00,proprietary,2015-07-05 07:41:00,
2015-07-05 03:46:00,56.5,55.3,29.11,SW,220,0.2,0.7,95,0.00,,,0.00,proprietary,2015-07-05 07:46:00,
2015-07-05 03:51:00,56.1,54.7,29.11,SW,220,0.1,0.8,95,0.00,,,0.00,proprietary,2015-07-05 07:51:00,
2015-07-05 03:56:00,56.0,54.7,29.12,North,0,0.0,0.0,95,0.00,,,0.00,proprietary,2015-07-05 07:56:00,
2015-07-05 04:01:00,56.1,54.7,29.12,SW,221,0.2,0.9,95,0.00,,,0.00,proprietary,2015-07-05 08:01:00,
2015-07-05 04:06:00,56.1,54.8,29.12,SW,221,0.2,1.0,95,0.00,,,0.00,proprietary,2015-07-05 08:06:00,
2015-07-05 04:11:00,56.1,54.9,29.12,North,0,0.0,0.0,95,0.00,,,0.00,proprietary,2015-07-05 08:11:00,
2015-07-05 04:16:00,56.0,54.8,29.12,North,0,0.0,0.0,95,0.00,,,0.00,proprietary,2015-07-05 08:16:00,
2015-07-05 04:21:00,56.0,54.8,29.12,North,0,0.0,0.0,95,0.00,,,0.00,proprietary,2015-07-05 08:21:00,
2015-07-05 04:26:00,55.9,54.6,29.12,SW,221,1.1,1.4,95,0.00,,,0.00,proprietary,2015-07-05 08:26:00,
2015-07-05 04:31:00,55.9,54.6,29.12,North,0,0.0,0.0,95,0.00,,,0.00,proprietary,2015-07-05 08:31:00,
2015-07-05 04:36:00,55.8,54.6,29.13,SW,221,1.2,1.5,95,0.00,,,0.00,proprietary,2015-07-05 08:36:00,
2015-07-05 04:41:00,55.8,54.6,29.13,SW,221,0.9,1.0,95,0.00,,,0.00,proprietary,2015-07-05 08:41:00,
2015-07-05 04:46:00,55.5,54.4,29.13,North,0,0.0,0.0,95,0.00,,,0.00,proprietary,2015-07-05 08:46:00,
2015-07-05 04:51:00,55.6,54.4,29.13,North,0,0.0,0.0,95,0.00,,,0.00,proprietary,2015-07-05 08:51:00,
2015-07-05 04:56:00,55.6,54.4,29.13,SW,221,0.7,0.9,95,0.00,,,0.00,proprietary,2015-07-05 08:56:00,
2015-07-05 05:01:00,55.5,54.3,29.13,North,0,0.0,0.0,95,0.00,,,0.00,proprietary,2015-07-05 09:01:00,
2015-07-05 05:06:00,55.4,54.3,29.13,North,0,0.0,0.0,95,0.00,,,0.00,proprietary,2015-07-05 09:06:00,
2015-07-05 05:11:00,55.3,54.2,29.13,SW,221,0.1,0.7,96,0.00,,,0.00,proprietary,2015-07-05 09:11:00,
2015-07-05 05:16:00,55.3,54.2,29.13,SW,221,0.7,1.1,95,0.00,,,0.00,proprietary,2015-07-05 09:16:00,
2015-07-05 05:21:00,55.1,53.9,29.13,SW,215,1.2,1.3,95,0.00,,,0.00,proprietary,2015-07-05 09:21:00,
2015-07-05 05:26:00,55.0,54.0,29.13,SW,221,1.4,1.5,96,0.00,,,0.00,proprietary,2015-07-05 09:26:00,
2015-07-05 05:31:00,54.9,53.8,29.13,North,0,0.0,0.0,95,0.00,,,0.00,proprietary,2015-07-05 09:31:00,
2015-07-05 05:36:00,54.9,53.8,29.13,North,0,0.0,0.0,96,0.00,,,0.00,proprietary,2015-07-05 09:36:00,
2015-07-05 05:41:00,54.8,53.7,29.13,SW,221,1.4,1.5,95,0.00,,,0.00,proprietary,2015-07-05 09:41:00,
2015-07-05 05:46:00,54.8,53.7,29.13,SW,221,1.1,1.2,95,0.00,,,0.00,proprietary,2015-07-05 09:46:00,
2015-07-05 05:51:00,54.7,53.7,29.14,SW,217,0.3,0.8,96,0.00,,,0.00,proprietary,2015-07-05 09:51:00,
2015-07-05 05:56:00,54.5,53.5,29.14,North,0,0.0,0.0,96,0.00,,,0.00,proprietary,2015-07-05 09:56:00,
2015-07-05 06:01:00,54.7,53.6,29.14,SW,220,1.2,1.2,96,0.00,,,0.00,proprietary,2015-07-05 10:01:00,
2015-07-05 06:06:00,54.6,53.5,29.14,SW,219,1.0,1.1,96,0.00,,,0.00,proprietary,2015-07-05 10:06:00,
2015-07-05 06:11:00,54.7,53.7,29.14,SW,216,0.4,0.9,96,0.00,,,0.00,proprietary,2015-07-05 10:11:00,
2015-07-05 06:16:00,54.5,53.5,29.14,SW,219,0.5,0.8,96,0.00,,,0.00,proprietary,2015-07-05 10:16:00,
2015-07-05 06:21:00,54.5,53.4,29.14,SW,219,0.8,0.8,96,0.00,,,0.00,proprietary,2015-07-05 10:21:00,
2015-07-05 06:26:00,54.5,53.4,29.15,SW,221,1.2,1.4,96,0.00,,,0.00,proprietary,2015-07-05 10:26:00,
2015-07-05 06:31:00,54.6,53.5,29.15,North,0,0.0,0.0,96,0.00,,,0.00,proprietary,2015-07-05 10:31:00,
2015-07-05 06:36:00,54.6,53.5,29.15,SW,221,0.8,1.0,95,0.00,,,0.00,proprietary,2015-07-05 10:36:00,
2015-07-05 06:41:00,54.6,53.5,29.15,North,0,0.0,0.0,95,0.00,,,0.00,proprietary,2015-07-05 10:41:00,
2015-07-05 06:46:00,54.6,53.4,29.15,SW,220,0.2,0.9,95,0.00,,,0.00,proprietary,2015-07-05 10:46:00,
2015-07-05 06:51:00,54.7,53.5,29.15,North,0,0.0,0.0,95,0.00,,,0.00,proprietary,2015-07-05 10:51:00,
2015-07-05 06:56:00,54.9,53.7,29.15,SW,221,0.3,0.9,95,0.00,,,0.00,proprietary,2015-07-05 10:56:00,
2015-07-05 07:01:00,55.1,53.9,29.15,SW,221,0.8,1.0,95,0.00,,,0.00,proprietary,2015-07-05 11:01:00,
2015-07-05 07:06:00,55.3,54.0,29.15,North,0,0.0,0.0,95,0.00,,,0.00,proprietary,2015-07-05 11:06:00,
2015-07-05 07:11:00,55.4,54.0,29.15,SW,221,1.0,1.2,95,0.00,,,0.00,proprietary,2015-07-05 11:11:00,
2015-07-05 07:16:00,55.6,54.2,29.15,North,0,0.0,0.0,95,0.00,,,0.00,proprietary,2015-07-05 11:16:00,
2015-07-05 07:21:00,55.7,54.4,29.15,North,0,0.0,0.0,95,0.00,,,0.00,proprietary,2015-07-05 11:21:00,
2015-07-05 07:26:00,56.2,54.8,29.15,North,0,0.0,0.0,95,0.00,,,0.00,proprietary,2015-07-05 11:26:00,
2015-07-05 07:31:00,56.8,55.2,29.15,North,0,0.0,0.0,94,0.00,,,0.00,proprietary,2015-07-05 11:31:00,
2015-07-05 07:36:00,57.0,55.2,29.15,North,0,0.0,0.0,93,0.00,,,0.00,proprietary,2015-07-05 11:36:00,
2015-07-05 07:41:00,57.8,55.7,29.14,North,0,0.0,0.0,92,0.00,,,0.00,proprietary,2015-07-05 11:41:00,
2015-07-05 07:46:00,58.8,56.1,29.14,North,0,0.0,0.0,90,0.00,,,0.00,proprietary,2015-07-05 11:46:00,
2015-07-05 07:51:00,59.3,55.9,29.14,North,0,0.0,0.0,88,0.00,,,0.00,proprietary,2015-07-05 11:51:00,
2015-07-05 07:56:00,59.6,56.3,29.14,North,0,0.0,0.0,88,0.00,,,0.00,proprietary,2015-07-05 11:56:00,
2015-07-05 08:01:00,59.8,56.5,29.14,ESE,110,1.9,2.1,88,0.00,,,0.00,proprietary,2015-07-05 12:01:00,
2015-07-05 08:06:00,59.7,56.9,29.14,East,80,1.7,2.0,90,0.00,,,0.00,proprietary,2015-07-05 12:06:00,
2015-07-05 08:11:00,60.2,57.3,29.14,ESE,105,1.7,1.9,90,0.00,,,0.00,proprietary,2015-07-05 12:11:00,
2015-07-05 08:16:00,60.6,57.9,29.14,North,0,0.0,0.0,90,0.00,,,0.00,proprietary,2015-07-05 12:16:00,
2015-07-05 08:21:00,61.6,58.5,29.14,ESE,106,0.1,1.0,89,0.00,,,0.00,proprietary,2015-07-05 12:21:00,
2015-07-05 08:26:00,62.2,58.4,29.14,ESE,114,1.2,1.7,87,0.00,,,0.00,proprietary,2015-07-05 12:26:00,
2015-07-05 08:31:00,62.9,59.5,29.14,North,0,0.0,0.0,88,0.00,,,0.00,proprietary,2015-07-05 12:31:00,
2015-07-05 08:36:00,63.9,59.9,29.14,North,0,0.0,0.0,86,0.00,,,0.00,proprietary,2015-07-05 12:36:00,
2015-07-05 08:41:00,64.6,60.4,29.14,North,0,0.0,0.0,86,0.00,,,0.00,proprietary,2015-07-05 12:41:00,
2015-07-05 08:46:00,65.9,60.3,29.14,North,0,0.0,0.0,82,0.00,,,0.00,proprietary,2015-07-05 12:46:00,
2015-07-05 08:51:00,66.8,60.0,29.14,North,0,0.0,0.0,78,0.00,,,0.00,proprietary,2015-07-05 12:51:00,
2015-07-05 08:57:00,66.6,61.0,29.14,WNW,302,0.4,1.2,82,0.00,,,0.00,proprietary,2015-07-05 12:57:00,
2015-07-05 09:02:00,67.4,61.8,29.14,North,0,0.0,0.0,81,0.00,,,0.00,proprietary,2015-07-05 13:02:00,
2015-07-05 09:07:00,68.3,61.9,29.14,NW,310,0.2,1.0,79,0.00,,,0.00,proprietary,2015-07-05 13:07:00,
2015-07-05 09:12:00,68.8,61.5,29.14,NW,304,1.2,1.5,77,0.00,,,0.00,proprietary,2015-07-05 13:12:00,
2015-07-05 09:17:00,69.2,60.8,29.14,WNW,294,1.4,1.9,74,0.00,,,0.00,proprietary,2015-07-05 13:17:00,
2015-07-05 09:22:00,69.8,61.2,29.14,SW,226,2.0,2.5,74,0.00,,,0.00,proprietary,2015-07-05 13:22:00,